sensor_id;sensor_type;location;lat;lon;timestamp;pressure;altitude;pressure_sealevel;temperature;humidity
3178;BME280;38141;42.666;23.344;2024-01-30T00:02:02;96600.44;;;0.17;100.00
3178;BME280;38141;42.666;23.344;2024-01-30T00:04:29;96600.94;;;0.24;100.00
3178;BME280;38141;42.666;23.344;2024-01-30T00:06:56;96606.81;;;0.21;100.00
3178;BME280;38141;42.666;23.344;2024-01-30T00:09:23;96596.72;;;0.03;100.00
3178;BME280;38141;42.666;23.344;2024-01-30T00:11:51;96607.06;;;0.05;100.00
3178;BME280;38141;42.666;23.344;2024-01-30T00:14:18;96592.69;;;0.21;100.00
3178;BME280;38141;42.666;23.344;2024-01-30T00:16:45;96611.88;;;0.13;100.00
3178;BME280;38141;42.666;23.344;2024-01-30T00:19:13;96610.03;;;0.08;100.00
3178;BME280;38141;42.666;23.344;2024-01-30T00:21:40;96616.41;;;0.17;100.00
3178;BME280;38141;42.666;23.344;2024-01-30T00:24:07;96611.63;;;0.04;100.00
3178;BME280;38141;42.666;23.344;2024-01-30T00:26:34;96612.13;;;0.01;100.00
3178;BME280;38141;42.666;23.344;2024-01-30T00:29:01;96608.72;;;-0.05;100.00
3178;BME280;38141;42.666;23.344;2024-01-30T00:31:28;96612.94;;;-0.09;100.00
3178;BME280;38141;42.666;23.344;2024-01-30T00:33:55;96608.16;;;-0.22;100.00
3178;BME280;38141;42.666;23.344;2024-01-30T00:36:24;96594.88;;;-0.47;100.00
3178;BME280;38141;42.666;23.344;2024-01-30T00:38:51;96611.91;;;-0.33;100.00
3178;BME280;38141;42.666;23.344;2024-01-30T00:41:18;96616.69;;;-0.35;100.00
3178;BME280;38141;42.666;23.344;2024-01-30T00:43:45;96615.09;;;-0.21;100.00
3178;BME280;38141;42.666;23.344;2024-01-30T00:46:12;96598.63;;;-0.28;100.00
3178;BME280;38141;42.666;23.344;2024-01-30T00:48:39;96604.69;;;-0.22;100.00
3178;BME280;38141;42.666;23.344;2024-01-30T00:51:06;96617.47;;;-0.34;100.00
3178;BME280;38141;42.666;23.344;2024-01-30T00:53:34;96611.09;;;-0.28;100.00
3178;BME280;38141;42.666;23.344;2024-01-30T00:56:01;96605.78;;;-0.33;100.00
3178;BME280;38141;42.666;23.344;2024-01-30T00:58:29;96610.56;;;-0.30;100.00
3178;BME280;38141;42.666;23.344;2024-01-30T01:00:55;96609.75;;;-0.26;100.00
3178;BME280;38141;42.666;23.344;2024-01-30T01:03:22;96606.84;;;-0.24;100.00
3178;BME280;38141;42.666;23.344;2024-01-30T01:05:49;96611.91;;;-0.23;100.00
3178;BME280;38141;42.666;23.344;2024-01-30T01:08:16;96601.00;;;-0.21;100.00
3178;BME280;38141;42.666;23.344;2024-01-30T01:10:45;96600.44;;;-0.13;100.00
3178;BME280;38141;42.666;23.344;2024-01-30T01:13:12;96607.09;;;-0.06;100.00
3178;BME280;38141;42.666;23.344;2024-01-30T01:15:39;96605.25;;;-0.30;100.00
3178;BME280;38141;42.666;23.344;2024-01-30T01:18:06;96604.44;;;-0.36;100.00
3178;BME280;38141;42.666;23.344;2024-01-30T01:20:33;96610.31;;;-0.34;100.00
3178;BME280;38141;42.666;23.344;2024-01-30T01:23:00;96599.94;;;-0.30;100.00
3178;BME280;38141;42.666;23.344;2024-01-30T01:25:27;96605.78;;;-0.28;100.00
3178;BME280;38141;42.666;23.344;2024-01-30T01:27:55;96605.00;;;-0.24;100.00
3178;BME280;38141;42.666;23.344;2024-01-30T01:30:23;96605.75;;;-0.08;100.00
3178;BME280;38141;42.666;23.344;2024-01-30T01:32:51;96610.56;;;-0.25;100.00
3178;BME280;38141;42.666;23.344;2024-01-30T01:35:21;96608.19;;;-0.37;100.00
3178;BME280;38141;42.666;23.344;2024-01-30T01:37:49;96615.34;;;-0.53;100.00
3178;BME280;38141;42.666;23.344;2024-01-30T01:40:21;96600.44;;;-0.54;100.00
3178;BME280;38141;42.666;23.344;2024-01-30T01:42:49;96606.31;;;-0.36;100.00
3178;BME280;38141;42.666;23.344;2024-01-30T01:45:18;96610.56;;;-0.35;100.00
3178;BME280;38141;42.666;23.344;2024-01-30T01:47:47;96603.91;;;-0.43;100.00
3178;BME280;38141;42.666;23.344;2024-01-30T01:50:16;96608.69;;;-0.45;100.00
3178;BME280;38141;42.666;23.344;2024-01-30T01:52:44;96613.22;;;-0.46;100.00
3178;BME280;38141;42.666;23.344;2024-01-30T01:55:13;96606.81;;;-0.65;100.00
3178;BME280;38141;42.666;23.344;2024-01-30T01:57:41;96616.41;;;-0.69;100.00
3178;BME280;38141;42.666;23.344;2024-01-30T02:00:09;96612.66;;;-0.63;100.00
3178;BME280;38141;42.666;23.344;2024-01-30T02:02:39;96599.38;;;-0.68;100.00
3178;BME280;38141;42.666;23.344;2024-01-30T02:05:07;96614.53;;;-0.48;100.00
3178;BME280;38141;42.666;23.344;2024-01-30T02:07:34;96620.66;;;-0.48;100.00
3178;BME280;38141;42.666;23.344;2024-01-30T02:10:02;96619.06;;;-0.64;100.00
3178;BME280;38141;42.666;23.344;2024-01-30T02:12:29;96625.97;;;-0.53;100.00
3178;BME280;38141;42.666;23.344;2024-01-30T02:14:56;96624.38;;;-0.49;100.00
3178;BME280;38141;42.666;23.344;2024-01-30T02:17:23;96620.66;;;-0.42;100.00
3178;BME280;38141;42.666;23.344;2024-01-30T02:19:51;96601.53;;;-0.60;100.00
3178;BME280;38141;42.666;23.344;2024-01-30T02:22:20;96617.75;;;-0.46;100.00
3178;BME280;38141;42.666;23.344;2024-01-30T02:24:48;96598.34;;;-0.36;100.00
3178;BME280;38141;42.666;23.344;2024-01-30T02:27:14;96620.69;;;-0.27;100.00
3178;BME280;38141;42.666;23.344;2024-01-30T02:29:41;96599.94;;;-0.25;100.00
3178;BME280;38141;42.666;23.344;2024-01-30T02:32:08;96606.31;;;-0.11;100.00
3178;BME280;38141;42.666;23.344;2024-01-30T02:34:35;96610.56;;;-0.05;100.00
3178;BME280;38141;42.666;23.344;2024-01-30T02:37:02;96616.09;;;0.14;100.00
3178;BME280;38141;42.666;23.344;2024-01-30T02:39:30;96610.53;;;0.20;100.00
3178;BME280;38141;42.666;23.344;2024-01-30T02:41:57;96616.41;;;0.02;100.00
3178;BME280;38141;42.666;23.344;2024-01-30T02:44:24;96611.88;;;-0.08;100.00
3178;BME280;38141;42.666;23.344;2024-01-30T02:46:51;96618.25;;;0.02;100.00
3178;BME280;38141;42.666;23.344;2024-01-30T02:49:19;96615.59;;;-0.04;100.00
3178;BME280;38141;42.666;23.344;2024-01-30T02:51:46;96616.16;;;0.09;100.00
3178;BME280;38141;42.666;23.344;2024-01-30T02:54:13;96612.63;;;0.28;99.17
3178;BME280;38141;42.666;23.344;2024-01-30T02:56:42;96610.78;;;0.19;99.00
3178;BME280;38141;42.666;23.344;2024-01-30T02:59:09;96614.78;;;0.21;100.00
3178;BME280;38141;42.666;23.344;2024-01-30T03:01:42;96616.09;;;0.24;100.00
3178;BME280;38141;42.666;23.344;2024-01-30T03:04:09;96612.94;;;0.22;100.00
3178;BME280;38141;42.666;23.344;2024-01-30T03:06:37;96614.78;;;0.26;100.00
3178;BME280;38141;42.666;23.344;2024-01-30T03:09:03;96600.63;;;0.41;99.71
3178;BME280;38141;42.666;23.344;2024-01-30T03:11:30;96609.41;;;0.36;99.30
3178;BME280;38141;42.666;23.344;2024-01-30T03:13:59;96604.63;;;0.38;98.96
3178;BME280;38141;42.666;23.344;2024-01-30T03:16:26;96610.78;;;0.24;100.00
3178;BME280;38141;42.666;23.344;2024-01-30T03:18:53;96607.78;;;0.45;97.88
3178;BME280;38141;42.666;23.344;2024-01-30T03:21:20;96598.00;;;0.36;93.06
3178;BME280;38141;42.666;23.344;2024-01-30T03:23:47;96609.41;;;0.36;95.09
3178;BME280;38141;42.666;23.344;2024-01-30T03:26:14;96602.19;;;0.52;96.21
3178;BME280;38141;42.666;23.344;2024-01-30T03:28:41;96605.44;;;0.39;97.67
3178;BME280;38141;42.666;23.344;2024-01-30T03:31:10;96603.03;;;0.27;100.00
3178;BME280;38141;42.666;23.344;2024-01-30T03:33:37;96595.09;;;0.22;98.31
3178;BME280;38141;42.666;23.344;2024-01-30T03:36:05;96594.25;;;0.32;96.22
3178;BME280;38141;42.666;23.344;2024-01-30T03:38:32;96596.66;;;0.33;95.54
3178;BME280;38141;42.666;23.344;2024-01-30T03:40:59;96593.72;;;0.35;94.27
3178;BME280;38141;42.666;23.344;2024-01-30T03:43:27;96589.22;;;0.35;94.13
3178;BME280;38141;42.666;23.344;2024-01-30T03:45:54;96596.41;;;0.30;97.70
3178;BME280;38141;42.666;23.344;2024-01-30T03:48:22;96589.72;;;0.37;96.14
3178;BME280;38141;42.666;23.344;2024-01-30T03:50:51;96592.94;;;0.34;98.52
3178;BME280;38141;42.666;23.344;2024-01-30T03:53:18;96588.66;;;0.38;96.33
3178;BME280;38141;42.666;23.344;2024-01-30T03:55:45;96579.09;;;0.32;93.71
3178;BME280;38141;42.666;23.344;2024-01-30T03:58:12;96595.59;;;0.24;95.00
3178;BME280;38141;42.666;23.344;2024-01-30T04:00:39;96563.19;;;0.17;95.91
3178;BME280;38141;42.666;23.344;2024-01-30T04:03:06;96584.16;;;0.34;94.87
3178;BME280;38141;42.666;23.344;2024-01-30T04:05:35;96582.53;;;0.33;93.31
3178;BME280;38141;42.666;23.344;2024-01-30T04:08:02;96575.84;;;0.51;92.14
3178;BME280;38141;42.666;23.344;2024-01-30T04:10:29;96579.03;;;0.48;91.02
3178;BME280;38141;42.666;23.344;2024-01-30T04:12:56;96582.25;;;0.44;93.42
3178;BME280;38141;42.666;23.344;2024-01-30T04:15:23;96585.19;;;0.38;94.78
3178;BME280;38141;42.666;23.344;2024-01-30T04:17:50;96591.09;;;0.30;100.00
3178;BME280;38141;42.666;23.344;2024-01-30T04:20:17;96579.38;;;0.31;100.00
3178;BME280;38141;42.666;23.344;2024-01-30T04:22:46;96581.00;;;0.17;100.00
3178;BME280;38141;42.666;23.344;2024-01-30T04:25:13;96586.84;;;0.14;100.00
3178;BME280;38141;42.666;23.344;2024-01-30T04:27:40;96583.38;;;0.18;100.00
3178;BME280;38141;42.666;23.344;2024-01-30T04:30:08;96586.25;;;0.37;100.00
3178;BME280;38141;42.666;23.344;2024-01-30T04:32:35;96599.19;;;0.74;100.00
3178;BME280;38141;42.666;23.344;2024-01-30T04:35:03;96600.09;;;0.49;100.00
3178;BME280;38141;42.666;23.344;2024-01-30T04:37:30;96597.72;;;0.37;100.00
3178;BME280;38141;42.666;23.344;2024-01-30T04:39:59;96587.63;;;0.19;100.00
3178;BME280;38141;42.666;23.344;2024-01-30T04:42:26;96590.84;;;0.21;100.00
3178;BME280;38141;42.666;23.344;2024-01-30T04:44:53;96592.16;;;0.24;100.00
3178;BME280;38141;42.666;23.344;2024-01-30T04:47:20;96596.16;;;0.26;100.00
3178;BME280;38141;42.666;23.344;2024-01-30T04:49:47;96600.66;;;0.31;100.00
3178;BME280;38141;42.666;23.344;2024-01-30T04:52:14;96613.19;;;0.20;100.00
3178;BME280;38141;42.666;23.344;2024-01-30T04:54:41;96608.91;;;0.19;100.00
3178;BME280;38141;42.666;23.344;2024-01-30T04:57:09;96616.09;;;0.24;99.77
3178;BME280;38141;42.666;23.344;2024-01-30T04:59:37;96605.88;;;0.61;100.00
3178;BME280;38141;42.666;23.344;2024-01-30T05:02:04;96617.91;;;0.59;97.26
3178;BME280;38141;42.666;23.344;2024-01-30T05:04:32;96611.81;;;0.33;95.02
3178;BME280;38141;42.666;23.344;2024-01-30T05:06:59;96600.13;;;0.24;95.68
3178;BME280;38141;42.666;23.344;2024-01-30T05:09:26;96628.59;;;0.28;92.72
3178;BME280;38141;42.666;23.344;2024-01-30T05:11:53;96609.47;;;0.01;90.36
3178;BME280;38141;42.666;23.344;2024-01-30T05:14:22;96627.53;;;0.19;87.58
3178;BME280;38141;42.666;23.344;2024-01-30T05:16:49;96618.25;;;0.22;85.47
3178;BME280;38141;42.666;23.344;2024-01-30T05:19:16;96619.06;;;0.07;84.13
3178;BME280;38141;42.666;23.344;2024-01-30T05:21:44;96620.13;;;0.06;84.23
3178;BME280;38141;42.666;23.344;2024-01-30T05:24:11;96621.72;;;0.07;83.76
3178;BME280;38141;42.666;23.344;2024-01-30T05:26:38;96625.69;;;0.05;83.32
3178;BME280;38141;42.666;23.344;2024-01-30T05:29:05;96626.78;;;-0.02;84.61
3178;BME280;38141;42.666;23.344;2024-01-30T05:31:34;96612.69;;;-0.17;84.71
3178;BME280;38141;42.666;23.344;2024-01-30T05:34:01;96624.13;;;-0.17;85.76
3178;BME280;38141;42.666;23.344;2024-01-30T05:36:29;96610.84;;;-0.37;84.85
3178;BME280;38141;42.666;23.344;2024-01-30T05:38:56;96620.41;;;-0.26;89.03
3178;BME280;38141;42.666;23.344;2024-01-30T05:41:23;96621.72;;;-0.54;96.42
3178;BME280;38141;42.666;23.344;2024-01-30T05:43:50;96616.41;;;-0.49;98.13
3178;BME280;38141;42.666;23.344;2024-01-30T05:46:17;96627.03;;;-0.49;99.38
3178;BME280;38141;42.666;23.344;2024-01-30T05:48:46;96615.59;;;-0.49;96.98
3178;BME280;38141;42.666;23.344;2024-01-30T05:51:13;96626.25;;;-0.39;96.24
3178;BME280;38141;42.666;23.344;2024-01-30T05:53:40;96625.44;;;-0.60;97.37
3178;BME280;38141;42.666;23.344;2024-01-30T05:56:07;96635.28;;;-0.60;97.80
3178;BME280;38141;42.666;23.344;2024-01-30T05:58:34;96610.78;;;-0.67;97.22
3178;BME280;38141;42.666;23.344;2024-01-30T06:01:03;96623.88;;;-0.46;95.68
3178;BME280;38141;42.666;23.344;2024-01-30T06:03:30;96615.63;;;-0.39;93.73
3178;BME280;38141;42.666;23.344;2024-01-30T06:05:58;96618.00;;;-0.48;94.65
3178;BME280;38141;42.666;23.344;2024-01-30T06:08:25;96603.94;;;-0.28;94.16
3178;BME280;38141;42.666;23.344;2024-01-30T06:10:52;96629.44;;;-0.22;94.89
3178;BME280;38141;42.666;23.344;2024-01-30T06:13:19;96623.06;;;-0.46;99.12
3178;BME280;38141;42.666;23.344;2024-01-30T06:15:48;96639.78;;;-0.40;100.00
3178;BME280;38141;42.666;23.344;2024-01-30T06:18:15;96637.16;;;-0.51;100.00
3178;BME280;38141;42.666;23.344;2024-01-30T06:20:42;96641.94;;;-0.48;100.00
3178;BME280;38141;42.666;23.344;2024-01-30T06:23:11;96641.94;;;-0.32;100.00
3178;BME280;38141;42.666;23.344;2024-01-30T06:25:38;96621.47;;;-0.37;97.00
3178;BME280;38141;42.666;23.344;2024-01-30T06:28:05;96634.25;;;-0.19;94.93
3178;BME280;38141;42.666;23.344;2024-01-30T06:30:32;96644.31;;;0.20;92.97
3178;BME280;38141;42.666;23.344;2024-01-30T06:32:59;96641.09;;;0.23;91.30
3178;BME280;38141;42.666;23.344;2024-01-30T06:35:26;96642.94;;;0.37;92.41
3178;BME280;38141;42.666;23.344;2024-01-30T06:37:54;96637.28;;;0.69;89.69
3178;BME280;38141;42.666;23.344;2024-01-30T06:40:22;96631.44;;;1.26;85.36
3178;BME280;38141;42.666;23.344;2024-01-30T06:42:50;96626.31;;;1.74;78.21
3178;BME280;38141;42.666;23.344;2024-01-30T06:45:17;96634.28;;;2.42;74.29
3178;BME280;38141;42.666;23.344;2024-01-30T06:47:44;96634.19;;;2.99;76.28
3178;BME280;38141;42.666;23.344;2024-01-30T06:50:11;96634.75;;;3.39;71.87
3178;BME280;38141;42.666;23.344;2024-01-30T06:52:38;96637.06;;;4.15;68.68
3178;BME280;38141;42.666;23.344;2024-01-30T06:55:05;96637.16;;;4.70;65.96
3178;BME280;38141;42.666;23.344;2024-01-30T06:57:34;96644.63;;;5.14;59.20
3178;BME280;38141;42.666;23.344;2024-01-30T07:00:01;96640.91;;;5.37;56.02
3178;BME280;38141;42.666;23.344;2024-01-30T07:02:30;96646.59;;;5.85;53.86
3178;BME280;38141;42.666;23.344;2024-01-30T07:04:57;96646.69;;;6.16;52.02
3178;BME280;38141;42.666;23.344;2024-01-30T07:07:24;96646.66;;;6.38;50.52
3178;BME280;38141;42.666;23.344;2024-01-30T07:09:51;96656.91;;;6.36;50.98
3178;BME280;38141;42.666;23.344;2024-01-30T07:12:22;96640.78;;;6.98;49.11
3178;BME280;38141;42.666;23.344;2024-01-30T07:14:53;96636.97;;;7.47;47.51
3178;BME280;38141;42.666;23.344;2024-01-30T07:17:22;96641.75;;;8.27;45.92
3178;BME280;38141;42.666;23.344;2024-01-30T07:19:49;96630.16;;;9.58;43.00
3178;BME280;38141;42.666;23.344;2024-01-30T07:22:15;96632.19;;;11.13;39.97
3178;BME280;38141;42.666;23.344;2024-01-30T07:24:43;96640.16;;;15.26;34.46
3178;BME280;38141;42.666;23.344;2024-01-30T07:27:13;96658.34;;;19.30;28.48
3178;BME280;38141;42.666;23.344;2024-01-30T07:29:43;96653.66;;;19.80;26.53
3178;BME280;38141;42.666;23.344;2024-01-30T07:32:11;96646.91;;;20.23;25.49
3178;BME280;38141;42.666;23.344;2024-01-30T07:34:38;96639.91;;;19.34;25.95
3178;BME280;38141;42.666;23.344;2024-01-30T07:37:05;96636.78;;;15.13;29.33
3178;BME280;38141;42.666;23.344;2024-01-30T07:39:34;96627.06;;;11.96;32.65
3178;BME280;38141;42.666;23.344;2024-01-30T07:42:01;96649.00;;;12.31;32.92
3178;BME280;38141;42.666;23.344;2024-01-30T07:44:28;96645.31;;;12.24;32.81
3178;BME280;38141;42.666;23.344;2024-01-30T07:46:55;96646.34;;;10.61;35.43
3178;BME280;38141;42.666;23.344;2024-01-30T07:49:24;96644.50;;;11.23;34.47
3178;BME280;38141;42.666;23.344;2024-01-30T07:51:51;96640.97;;;12.07;33.86
3178;BME280;38141;42.666;23.344;2024-01-30T07:54:18;96634.06;;;12.37;33.49
3178;BME280;38141;42.666;23.344;2024-01-30T07:56:45;96642.94;;;11.82;33.43
3178;BME280;38141;42.666;23.344;2024-01-30T07:59:12;96644.25;;;12.00;34.26
3178;BME280;38141;42.666;23.344;2024-01-30T08:01:39;96647.06;;;12.32;33.39
3178;BME280;38141;42.666;23.344;2024-01-30T08:04:06;96632.88;;;12.94;32.75
3178;BME280;38141;42.666;23.344;2024-01-30T08:06:34;96638.72;;;12.96;33.05
3178;BME280;38141;42.666;23.344;2024-01-30T08:09:01;96636.13;;;13.31;32.18
3178;BME280;38141;42.666;23.344;2024-01-30T08:11:28;96637.97;;;15.35;30.71
3178;BME280;38141;42.666;23.344;2024-01-30T08:13:56;96632.03;;;14.64;30.03
3178;BME280;38141;42.666;23.344;2024-01-30T08:16:23;96634.81;;;19.25;26.41
3178;BME280;38141;42.666;23.344;2024-01-30T08:18:50;96646.22;;;20.96;24.26
3178;BME280;38141;42.666;23.344;2024-01-30T08:21:18;96650.81;;;26.46;20.67
3178;BME280;38141;42.666;23.344;2024-01-30T08:23:47;96644.19;;;25.46;20.28
3178;BME280;38141;42.666;23.344;2024-01-30T08:26:14;96649.84;;;26.52;19.93
3178;BME280;38141;42.666;23.344;2024-01-30T08:28:41;96649.91;;;27.19;18.65
3178;BME280;38141;42.666;23.344;2024-01-30T08:31:10;96654.72;;;29.07;17.66
3178;BME280;38141;42.666;23.344;2024-01-30T08:33:37;96659.69;;;28.68;17.55
3178;BME280;38141;42.666;23.344;2024-01-30T08:36:04;96664.59;;;25.56;18.80
3178;BME280;38141;42.666;23.344;2024-01-30T08:38:31;96653.63;;;22.50;20.74
3178;BME280;38141;42.666;23.344;2024-01-30T08:40:59;96655.91;;;21.77;21.39
3178;BME280;38141;42.666;23.344;2024-01-30T08:43:26;96645.34;;;20.33;22.66
3178;BME280;38141;42.666;23.344;2024-01-30T08:45:53;96649.63;;;20.27;23.43
3178;BME280;38141;42.666;23.344;2024-01-30T08:48:20;96653.13;;;18.86;24.19
3178;BME280;38141;42.666;23.344;2024-01-30T08:50:48;96643.28;;;18.67;25.19
3178;BME280;38141;42.666;23.344;2024-01-30T08:53:15;96662.47;;;16.07;26.91
3178;BME280;38141;42.666;23.344;2024-01-30T08:55:42;96656.22;;;17.43;25.89
3178;BME280;38141;42.666;23.344;2024-01-30T08:58:10;96665.75;;;17.60;25.72
3178;BME280;38141;42.666;23.344;2024-01-30T09:00:37;96667.69;;;21.81;22.49
3178;BME280;38141;42.666;23.344;2024-01-30T09:03:04;96658.56;;;21.43;23.31
3178;BME280;38141;42.666;23.344;2024-01-30T09:05:31;96662.28;;;24.79;19.90
3178;BME280;38141;42.666;23.344;2024-01-30T09:07:58;96679.69;;;29.41;17.65
3178;BME280;38141;42.666;23.344;2024-01-30T09:10:25;96676.75;;;31.58;16.00
3178;BME280;38141;42.666;23.344;2024-01-30T09:12:52;96666.31;;;31.16;15.93
3178;BME280;38141;42.666;23.344;2024-01-30T09:15:21;96667.78;;;31.45;15.98
3178;BME280;38141;42.666;23.344;2024-01-30T09:17:48;96663.94;;;27.79;17.50
3178;BME280;38141;42.666;23.344;2024-01-30T09:20:16;96655.81;;;24.66;18.99
3178;BME280;38141;42.666;23.344;2024-01-30T09:22:43;96658.94;;;24.88;20.01
3178;BME280;38141;42.666;23.344;2024-01-30T09:25:10;96657.31;;;21.51;21.69
3178;BME280;38141;42.666;23.344;2024-01-30T09:27:37;96657.66;;;24.72;19.41
3178;BME280;38141;42.666;23.344;2024-01-30T09:30:05;96645.88;;;25.24;19.06
3178;BME280;38141;42.666;23.344;2024-01-30T09:32:34;96655.66;;;28.13;18.15
3178;BME280;38141;42.666;23.344;2024-01-30T09:35:01;96657.66;;;26.99;18.27
3178;BME280;38141;42.666;23.344;2024-01-30T09:37:28;96649.88;;;26.36;18.52
3178;BME280;38141;42.666;23.344;2024-01-30T09:39:55;96624.56;;;18.94;24.14
3178;BME280;38141;42.666;23.344;2024-01-30T09:42:28;96633.16;;;15.05;28.48
3178;BME280;38141;42.666;23.344;2024-01-30T09:44:59;96624.50;;;13.65;30.10
3178;BME280;38141;42.666;23.344;2024-01-30T09:47:26;96628.66;;;13.94;30.72
3178;BME280;38141;42.666;23.344;2024-01-30T09:49:56;96630.09;;;14.26;30.27
3178;BME280;38141;42.666;23.344;2024-01-30T09:52:23;96628.16;;;11.43;33.48
3178;BME280;38141;42.666;23.344;2024-01-30T09:54:51;96626.78;;;10.89;34.50
3178;BME280;38141;42.666;23.344;2024-01-30T09:57:18;96627.88;;;10.76;35.51
3178;BME280;38141;42.666;23.344;2024-01-30T09:59:46;96638.81;;;10.34;36.29
3178;BME280;38141;42.666;23.344;2024-01-30T10:02:13;96629.66;;;9.85;37.39
3178;BME280;38141;42.666;23.344;2024-01-30T10:04:41;96620.78;;;9.55;37.82
3178;BME280;38141;42.666;23.344;2024-01-30T10:07:10;96619.66;;;9.86;36.45
3178;BME280;38141;42.666;23.344;2024-01-30T10:09:38;96620.84;;;10.17;37.19
3178;BME280;38141;42.666;23.344;2024-01-30T10:12:06;96618.91;;;10.18;36.94
3178;BME280;38141;42.666;23.344;2024-01-30T10:14:33;96615.22;;;10.67;36.18
3178;BME280;38141;42.666;23.344;2024-01-30T10:17:01;96617.59;;;10.69;35.87
3178;BME280;38141;42.666;23.344;2024-01-30T10:19:28;96613.53;;;10.63;35.94
3178;BME280;38141;42.666;23.344;2024-01-30T10:21:55;96603.19;;;11.62;35.28
3178;BME280;38141;42.666;23.344;2024-01-30T10:24:25;96604.50;;;12.48;33.46
3178;BME280;38141;42.666;23.344;2024-01-30T10:26:55;96618.06;;;12.48;33.10
3178;BME280;38141;42.666;23.344;2024-01-30T10:29:22;96603.31;;;10.93;35.31
3178;BME280;38141;42.666;23.344;2024-01-30T10:31:58;96608.81;;;10.72;35.44
3178;BME280;38141;42.666;23.344;2024-01-30T10:34:25;96610.38;;;10.28;36.60
3178;BME280;38141;42.666;23.344;2024-01-30T10:36:59;96615.00;;;10.60;36.03
3178;BME280;38141;42.666;23.344;2024-01-30T10:39:30;96614.09;;;10.56;36.45
3178;BME280;38141;42.666;23.344;2024-01-30T10:42:02;96613.25;;;11.13;35.13
3178;BME280;38141;42.666;23.344;2024-01-30T10:44:37;96614.00;;;10.77;35.81
3178;BME280;38141;42.666;23.344;2024-01-30T10:47:09;96604.88;;;10.82;36.09
3178;BME280;38141;42.666;23.344;2024-01-30T10:49:39;96600.97;;;11.15;35.53
3178;BME280;38141;42.666;23.344;2024-01-30T10:52:08;96598.06;;;10.18;37.25
3178;BME280;38141;42.666;23.344;2024-01-30T10:54:37;96606.78;;;10.03;37.31
3178;BME280;38141;42.666;23.344;2024-01-30T10:57:05;96595.38;;;9.27;37.92
3178;BME280;38141;42.666;23.344;2024-01-30T10:59:33;96600.22;;;8.11;39.32
3178;BME280;38141;42.666;23.344;2024-01-30T11:02:00;96589.91;;;8.85;38.62
3178;BME280;38141;42.666;23.344;2024-01-30T11:04:35;96578.13;;;8.90;38.90
3178;BME280;38141;42.666;23.344;2024-01-30T11:07:03;96575.53;;;9.02;38.82
3178;BME280;38141;42.666;23.344;2024-01-30T11:09:38;96578.88;;;8.61;38.67
3178;BME280;38141;42.666;23.344;2024-01-30T11:12:05;96576.41;;;8.13;39.42
3178;BME280;38141;42.666;23.344;2024-01-30T11:14:32;96578.72;;;7.77;40.80
3178;BME280;38141;42.666;23.344;2024-01-30T11:16:59;96567.59;;;7.44;40.90
3178;BME280;38141;42.666;23.344;2024-01-30T11:19:31;96576.13;;;7.46;41.77
3178;BME280;38141;42.666;23.344;2024-01-30T11:21:59;96573.94;;;7.74;41.79
3178;BME280;38141;42.666;23.344;2024-01-30T11:24:30;96573.41;;;7.20;42.80
3178;BME280;38141;42.666;23.344;2024-01-30T11:26:59;96578.50;;;7.90;41.44
3178;BME280;38141;42.666;23.344;2024-01-30T11:29:27;96561.41;;;7.86;41.44
3178;BME280;38141;42.666;23.344;2024-01-30T11:31:55;96574.66;;;7.05;42.72
3178;BME280;38141;42.666;23.344;2024-01-30T11:34:22;96579.50;;;6.16;43.98
3178;BME280;38141;42.666;23.344;2024-01-30T11:36:52;96581.84;;;5.73;45.05
3178;BME280;38141;42.666;23.344;2024-01-30T11:39:25;96569.59;;;5.94;44.74
3178;BME280;38141;42.666;23.344;2024-01-30T11:41:53;96569.47;;;5.99;44.69
3178;BME280;38141;42.666;23.344;2024-01-30T11:44:21;96577.34;;;5.82;45.19
3178;BME280;38141;42.666;23.344;2024-01-30T11:46:49;96572.53;;;6.15;44.45
3178;BME280;38141;42.666;23.344;2024-01-30T11:49:17;96576.81;;;6.47;44.33
3178;BME280;38141;42.666;23.344;2024-01-30T11:51:45;96565.03;;;6.25;44.50
3178;BME280;38141;42.666;23.344;2024-01-30T11:54:14;96562.97;;;6.00;45.09
3178;BME280;38141;42.666;23.344;2024-01-30T11:56:42;96565.72;;;5.15;46.55
3178;BME280;38141;42.666;23.344;2024-01-30T11:59:09;96549.78;;;5.32;46.48
3178;BME280;38141;42.666;23.344;2024-01-30T12:01:37;96544.81;;;5.39;46.51
3178;BME280;38141;42.666;23.344;2024-01-30T12:04:04;96542.38;;;5.73;46.46
3178;BME280;38141;42.666;23.344;2024-01-30T12:06:34;96529.50;;;6.37;45.28
3178;BME280;38141;42.666;23.344;2024-01-30T12:09:03;96512.16;;;7.26;43.85
3178;BME280;38141;42.666;23.344;2024-01-30T12:11:31;96513.56;;;7.14;44.24
3178;BME280;38141;42.666;23.344;2024-01-30T12:13:58;96524.63;;;7.82;44.25
3178;BME280;38141;42.666;23.344;2024-01-30T12:16:26;96519.75;;;7.67;42.55
3178;BME280;38141;42.666;23.344;2024-01-30T12:19:00;96517.75;;;6.72;44.08
3178;BME280;38141;42.666;23.344;2024-01-30T12:21:29;96519.06;;;6.92;44.02
3178;BME280;38141;42.666;23.344;2024-01-30T12:23:56;96521.13;;;6.87;44.61
3178;BME280;38141;42.666;23.344;2024-01-30T12:26:24;96518.47;;;7.04;43.17
3178;BME280;38141;42.666;23.344;2024-01-30T12:28:54;96509.13;;;7.19;43.21
3178;BME280;38141;42.666;23.344;2024-01-30T12:31:26;96512.66;;;7.53;42.61
3178;BME280;38141;42.666;23.344;2024-01-30T12:33:53;96510.09;;;7.48;43.10
3178;BME280;38141;42.666;23.344;2024-01-30T12:36:22;96489.97;;;6.94;43.45
3178;BME280;38141;42.666;23.344;2024-01-30T12:38:50;96501.19;;;6.96;43.67
3178;BME280;38141;42.666;23.344;2024-01-30T12:41:17;96494.13;;;7.43;42.65
3178;BME280;38141;42.666;23.344;2024-01-30T12:43:45;96481.72;;;7.85;42.50
3178;BME280;38141;42.666;23.344;2024-01-30T12:46:13;96501.69;;;7.24;42.60
3178;BME280;38141;42.666;23.344;2024-01-30T12:48:40;96502.81;;;7.66;42.30
3178;BME280;38141;42.666;23.344;2024-01-30T12:51:07;96490.25;;;7.87;42.48
3178;BME280;38141;42.666;23.344;2024-01-30T12:53:35;96480.72;;;7.98;42.59
3178;BME280;38141;42.666;23.344;2024-01-30T12:56:03;96480.63;;;7.69;42.91
3178;BME280;38141;42.666;23.344;2024-01-30T12:58:30;96489.81;;;7.59;43.15
3178;BME280;38141;42.666;23.344;2024-01-30T13:00:57;96480.16;;;7.50;43.06
3178;BME280;38141;42.666;23.344;2024-01-30T13:03:24;96479.50;;;7.70;43.27
3178;BME280;38141;42.666;23.344;2024-01-30T13:05:51;96479.97;;;7.81;42.77